sensor_id;sensor_type;location;lat;lon;timestamp;pressure;altitude;pressure_sealevel;temperature;humidity
64023;BME280;50264;52.088;5.296;2022-08-21T00:01:28;101672.0;;;14.06;85.85
64023;BME280;50264;52.088;5.296;2022-08-21T00:03:07;101670.0;;;14.07;86.2
64023;BME280;50264;52.088;5.296;2022-08-21T00:04:45;101671.0;;;14.0;86.2
64023;BME280;50264;52.088;5.296;2022-08-21T00:06:24;101675.0;;;14.02;86.33
64023;BME280;50264;52.088;5.296;2022-08-21T00:09:39;101671.0;;;14.07;86.07
64023;BME280;50264;52.088;5.296;2022-08-21T00:11:16;101671.0;;;14.06;85.97
64023;BME280;50264;52.088;5.296;2022-08-21T00:12:54;101670.0;;;13.94;85.82
64023;BME280;50264;52.088;5.296;2022-08-21T00:16:09;101673.0;;;13.96;86.19
64023;BME280;50264;52.088;5.296;2022-08-21T00:17:46;101671.0;;;13.93;85.71
64023;BME280;50264;52.088;5.296;2022-08-21T00:19:25;101674.0;;;14.08;85.74
64023;BME280;50264;52.088;5.296;2022-08-21T00:21:03;101673.0;;;14.03;86.47
64023;BME280;50264;52.088;5.296;2022-08-21T00:24:18;101673.0;;;14.08;86.16
64023;BME280;50264;52.088;5.296;2022-08-21T00:25:54;101671.0;;;13.96;86.04
64023;BME280;50264;52.088;5.296;2022-08-21T00:27:31;101669.0;;;13.97;85.86
64023;BME280;50264;52.088;5.296;2022-08-21T00:30:44;101664.0;;;13.9;86.23
64023;BME280;50264;52.088;5.296;2022-08-21T00:32:21;101658.0;;;13.83;86.08
64023;BME280;50264;52.088;5.296;2022-08-21T00:33:59;101657.0;;;13.92;86.17
64023;BME280;50264;52.088;5.296;2022-08-21T00:35:39;101655.0;;;13.88;85.66
64023;BME280;50264;52.088;5.296;2022-08-21T00:38:54;101655.0;;;13.82;86.12
64023;BME280;50264;52.088;5.296;2022-08-21T00:40:35;101657.0;;;13.81;86.51
64023;BME280;50264;52.088;5.296;2022-08-21T00:42:15;101652.0;;;13.85;86.1
64023;BME280;50264;52.088;5.296;2022-08-21T00:45:31;101655.0;;;13.83;86.2
64023;BME280;50264;52.088;5.296;2022-08-21T00:47:09;101657.0;;;13.82;86.21
64023;BME280;50264;52.088;5.296;2022-08-21T00:48:46;101656.0;;;13.77;86.28
64023;BME280;50264;52.088;5.296;2022-08-21T00:50:27;101662.0;;;13.71;86.22
64023;BME280;50264;52.088;5.296;2022-08-21T00:53:46;101663.0;;;13.68;86.5
64023;BME280;50264;52.088;5.296;2022-08-21T00:55:23;101661.0;;;13.67;86.58
64023;BME280;50264;52.088;5.296;2022-08-21T00:57:05;101662.0;;;13.68;86.54
64023;BME280;50264;52.088;5.296;2022-08-21T00:58:46;101658.0;;;13.68;86.7
64023;BME280;50264;52.088;5.296;2022-08-21T01:02:07;101657.0;;;13.72;87.31
64023;BME280;50264;52.088;5.296;2022-08-21T01:03:46;101657.0;;;13.72;87.05
64023;BME280;50264;52.088;5.296;2022-08-21T01:05:23;101660.0;;;13.76;87.13
64023;BME280;50264;52.088;5.296;2022-08-21T01:07:00;101657.0;;;13.79;86.25
64023;BME280;50264;52.088;5.296;2022-08-21T01:10:14;101664.0;;;13.71;86.22
64023;BME280;50264;52.088;5.296;2022-08-21T01:11:52;101655.0;;;13.73;86.43
64023;BME280;50264;52.088;5.296;2022-08-21T01:13:32;101658.0;;;13.73;87.07
64023;BME280;50264;52.088;5.296;2022-08-21T01:16:51;101653.0;;;13.69;86.43
64023;BME280;50264;52.088;5.296;2022-08-21T01:18:30;101653.0;;;13.67;87.12
64023;BME280;50264;52.088;5.296;2022-08-21T01:20:11;101652.0;;;13.6;87.34
64023;BME280;50264;52.088;5.296;2022-08-21T01:21:48;101651.0;;;13.66;87.1
64023;BME280;50264;52.088;5.296;2022-08-21T01:25:02;101653.0;;;13.65;86.92
64023;BME280;50264;52.088;5.296;2022-08-21T01:26:41;101655.0;;;13.6;86.78
64023;BME280;50264;52.088;5.296;2022-08-21T01:28:21;101652.0;;;13.53;87.1
64023;BME280;50264;52.088;5.296;2022-08-21T01:30:03;101659.0;;;13.51;87.21
64023;BME280;50264;52.088;5.296;2022-08-21T01:33:24;101658.0;;;13.45;87.37
64023;BME280;50264;52.088;5.296;2022-08-21T01:35:01;101657.0;;;13.4;87.5
64023;BME280;50264;52.088;5.296;2022-08-21T01:36:40;101658.0;;;13.47;88.05
64023;BME280;50264;52.088;5.296;2022-08-21T01:39:53;101656.0;;;13.46;88.05
64023;BME280;50264;52.088;5.296;2022-08-21T01:41:29;101648.0;;;13.46;87.75
64023;BME280;50264;52.088;5.296;2022-08-21T01:43:06;101655.0;;;13.43;87.33
64023;BME280;50264;52.088;5.296;2022-08-21T01:44:43;101652.0;;;13.43;87.95
64023;BME280;50264;52.088;5.296;2022-08-21T01:47:56;101652.0;;;13.42;87.39
64023;BME280;50264;52.088;5.296;2022-08-21T01:49:32;101644.0;;;13.41;87.76
64023;BME280;50264;52.088;5.296;2022-08-21T01:51:10;101652.0;;;13.42;87.99
64023;BME280;50264;52.088;5.296;2022-08-21T01:54:25;101647.0;;;13.43;87.68
64023;BME280;50264;52.088;5.296;2022-08-21T01:56:04;101646.0;;;13.42;87.7
64023;BME280;50264;52.088;5.296;2022-08-21T01:57:42;101647.0;;;13.35;88.05
64023;BME280;50264;52.088;5.296;2022-08-21T01:59:20;101642.0;;;13.37;88.41
64023;BME280;50264;52.088;5.296;2022-08-21T02:02:34;101642.0;;;13.39;88.32
64023;BME280;50264;52.088;5.296;2022-08-21T02:04:11;101642.0;;;13.43;88.5
64023;BME280;50264;52.088;5.296;2022-08-21T02:05:48;101639.0;;;13.47;88.28
64023;BME280;50264;52.088;5.296;2022-08-21T02:09:01;101640.0;;;13.45;88.53
64023;BME280;50264;52.088;5.296;2022-08-21T02:10:41;101640.0;;;13.46;88.26
64023;BME280;50264;52.088;5.296;2022-08-21T02:12:17;101639.0;;;13.48;88.09
64023;BME280;50264;52.088;5.296;2022-08-21T02:15:30;101640.0;;;13.47;87.87
64023;BME280;50264;52.088;5.296;2022-08-21T02:17:07;101638.0;;;13.41;88.08
64023;BME280;50264;52.088;5.296;2022-08-21T02:18:43;101637.0;;;13.39;87.94
64023;BME280;50264;52.088;5.296;2022-08-21T02:20:23;101638.0;;;13.42;88.13
64023;BME280;50264;52.088;5.296;2022-08-21T02:23:40;101634.0;;;13.36;88.18
64023;BME280;50264;52.088;5.296;2022-08-21T02:25:16;101632.0;;;13.36;87.81
64023;BME280;50264;52.088;5.296;2022-08-21T02:26:54;101627.0;;;13.39;88.14
64023;BME280;50264;52.088;5.296;2022-08-21T02:30:10;101625.0;;;13.4;88.51
64023;BME280;50264;52.088;5.296;2022-08-21T02:31:47;101627.0;;;13.34;88.29
64023;BME280;50264;52.088;5.296;2022-08-21T02:33:25;101630.0;;;13.36;88.53
64023;BME280;50264;52.088;5.296;2022-08-21T02:35:02;101624.0;;;13.3;88.92
64023;BME280;50264;52.088;5.296;2022-08-21T02:38:18;101627.0;;;13.26;89.05
64023;BME280;50264;52.088;5.296;2022-08-21T02:39:59;101623.0;;;13.26;88.7
64023;BME280;50264;52.088;5.296;2022-08-21T02:41:36;101622.0;;;13.26;88.39
64023;BME280;50264;52.088;5.296;2022-08-21T02:43:13;101619.0;;;13.25;89.0
64023;BME280;50264;52.088;5.296;2022-08-21T02:46:27;101615.0;;;13.2;88.74
64023;BME280;50264;52.088;5.296;2022-08-21T02:48:06;101608.0;;;13.23;89.52
64023;BME280;50264;52.088;5.296;2022-08-21T02:49:44;101613.0;;;13.24;88.79
64023;BME280;50264;52.088;5.296;2022-08-21T02:52:59;101617.0;;;13.24;88.48
64023;BME280;50264;52.088;5.296;2022-08-21T02:54:36;101619.0;;;13.23;88.25
64023;BME280;50264;52.088;5.296;2022-08-21T02:56:15;101613.0;;;13.22;88.23
64023;BME280;50264;52.088;5.296;2022-08-21T02:57:56;101616.0;;;13.25;88.28
64023;BME280;50264;52.088;5.296;2022-08-21T03:01:11;101615.0;;;13.24;88.52
64023;BME280;50264;52.088;5.296;2022-08-21T03:02:49;101607.0;;;13.17;88.41
64023;BME280;50264;52.088;5.296;2022-08-21T03:04:25;101607.0;;;13.22;88.78
64023;BME280;50264;52.088;5.296;2022-08-21T03:07:42;101602.0;;;13.19;88.31
64023;BME280;50264;52.088;5.296;2022-08-21T03:09:19;101605.0;;;13.17;88.3
64023;BME280;50264;52.088;5.296;2022-08-21T03:10:55;101600.0;;;13.17;88.66
64023;BME280;50264;52.088;5.296;2022-08-21T03:12:32;101600.0;;;13.14;88.88
64023;BME280;50264;52.088;5.296;2022-08-21T03:15:46;101599.0;;;13.12;88.71
64023;BME280;50264;52.088;5.296;2022-08-21T03:17:23;101597.0;;;13.1;88.59
64023;BME280;50264;52.088;5.296;2022-08-21T03:19:00;101597.0;;;13.18;88.7
64023;BME280;50264;52.088;5.296;2022-08-21T03:22:17;101597.0;;;13.18;88.9
64023;BME280;50264;52.088;5.296;2022-08-21T03:23:54;101596.0;;;13.19;88.76
64023;BME280;50264;52.088;5.296;2022-08-21T03:25:32;101597.0;;;13.2;88.9
64023;BME280;50264;52.088;5.296;2022-08-21T03:27:12;101599.0;;;13.21;89.15
64023;BME280;50264;52.088;5.296;2022-08-21T03:30:28;101597.0;;;13.15;88.77
64023;BME280;50264;52.088;5.296;2022-08-21T03:32:04;101597.0;;;13.13;88.75
64023;BME280;50264;52.088;5.296;2022-08-21T03:33:41;101594.0;;;13.16;88.79
64023;BME280;50264;52.088;5.296;2022-08-21T03:36:56;101591.0;;;13.16;88.57
64023;BME280;50264;52.088;5.296;2022-08-21T03:38:34;101592.0;;;13.24;88.25
64023;BME280;50264;52.088;5.296;2022-08-21T03:40:13;101595.0;;;13.18;88.54
64023;BME280;50264;52.088;5.296;2022-08-21T03:41:52;101589.0;;;13.1;88.12
64023;BME280;50264;52.088;5.296;2022-08-21T03:45:07;101590.0;;;13.1;88.72
64023;BME280;50264;52.088;5.296;2022-08-21T03:46:45;101586.0;;;13.13;88.8
64023;BME280;50264;52.088;5.296;2022-08-21T03:48:22;101589.0;;;13.12;88.71
64023;BME280;50264;52.088;5.296;2022-08-21T03:51:36;101590.0;;;13.12;88.4
64023;BME280;50264;52.088;5.296;2022-08-21T03:53:14;101590.0;;;13.13;88.03
64023;BME280;50264;52.088;5.296;2022-08-21T03:54:51;101587.0;;;13.11;88.42
64023;BME280;50264;52.088;5.296;2022-08-21T03:56:28;101590.0;;;13.13;88.7
64023;BME280;50264;52.088;5.296;2022-08-21T03:59:43;101586.0;;;13.11;88.72
64023;BME280;50264;52.088;5.296;2022-08-21T04:01:20;101590.0;;;13.13;88.89
64023;BME280;50264;52.088;5.296;2022-08-21T04:02:56;101587.0;;;13.13;89.12
64023;BME280;50264;52.088;5.296;2022-08-21T04:06:10;101584.0;;;13.09;89.04
64023;BME280;50264;52.088;5.296;2022-08-21T04:07:46;101586.0;;;13.05;88.52
64023;BME280;50264;52.088;5.296;2022-08-21T04:09:24;101585.0;;;13.08;88.7
64023;BME280;50264;52.088;5.296;2022-08-21T04:12:39;101586.0;;;13.08;89.21
64023;BME280;50264;52.088;5.296;2022-08-21T04:14:16;101583.0;;;13.07;88.96
64023;BME280;50264;52.088;5.296;2022-08-21T04:15:53;101586.0;;;13.08;89.11
64023;BME280;50264;52.088;5.296;2022-08-21T04:17:30;101589.0;;;13.12;89.24
64023;BME280;50264;52.088;5.296;2022-08-21T04:20:45;101589.0;;;13.15;88.57
64023;BME280;50264;52.088;5.296;2022-08-21T04:22:24;101587.0;;;13.19;88.38
64023;BME280;50264;52.088;5.296;2022-08-21T04:24:00;101591.0;;;13.25;88.11
64023;BME280;50264;52.088;5.296;2022-08-21T04:27:13;101588.0;;;13.14;88.0
64023;BME280;50264;52.088;5.296;2022-08-21T04:28:49;101588.0;;;13.04;88.7
64023;BME280;50264;52.088;5.296;2022-08-21T04:30:26;101587.0;;;12.96;89.02
64023;BME280;50264;52.088;5.296;2022-08-21T04:32:03;101590.0;;;12.97;88.55
64023;BME280;50264;52.088;5.296;2022-08-21T04:35:19;101594.0;;;13.03;88.71
64023;BME280;50264;52.088;5.296;2022-08-21T04:36:56;101586.0;;;13.1;88.98
64023;BME280;50264;52.088;5.296;2022-08-21T04:38:32;101593.0;;;13.12;88.4
64023;BME280;50264;52.088;5.296;2022-08-21T04:41:49;101595.0;;;13.08;88.32
64023;BME280;50264;52.088;5.296;2022-08-21T04:43:25;101593.0;;;13.13;88.56
64023;BME280;50264;52.088;5.296;2022-08-21T04:45:01;101590.0;;;13.1;88.33
64023;BME280;50264;52.088;5.296;2022-08-21T04:46:38;101591.0;;;12.99;88.39
64023;BME280;50264;52.088;5.296;2022-08-21T04:49:55;101590.0;;;13.02;88.37
64023;BME280;50264;52.088;5.296;2022-08-21T04:51:34;101588.0;;;12.99;88.45
64023;BME280;50264;52.088;5.296;2022-08-21T04:53:16;101588.0;;;13.0;88.34
64023;BME280;50264;52.088;5.296;2022-08-21T04:56:33;101592.0;;;13.01;88.48
64023;BME280;50264;52.088;5.296;2022-08-21T04:58:19;101592.0;;;13.0;88.37
64023;BME280;50264;52.088;5.296;2022-08-21T04:59:56;101597.0;;;12.97;89.06
64023;BME280;50264;52.088;5.296;2022-08-21T05:01:34;101602.0;;;12.94;89.27
64023;BME280;50264;52.088;5.296;2022-08-21T05:04:54;101608.0;;;12.96;89.33
64023;BME280;50264;52.088;5.296;2022-08-21T05:06:33;101614.0;;;12.99;89.5
64023;BME280;50264;52.088;5.296;2022-08-21T05:08:15;101610.0;;;13.01;88.84
64023;BME280;50264;52.088;5.296;2022-08-21T05:09:54;101615.0;;;13.02;88.6
64023;BME280;50264;52.088;5.296;2022-08-21T05:13:10;101616.0;;;13.01;88.65
64023;BME280;50264;52.088;5.296;2022-08-21T05:14:48;101616.0;;;13.11;88.78
64023;BME280;50264;52.088;5.296;2022-08-21T05:16:25;101621.0;;;13.06;88.58
64023;BME280;50264;52.088;5.296;2022-08-21T05:18:03;101623.0;;;13.05;89.01
64023;BME280;50264;52.088;5.296;2022-08-21T05:21:16;101621.0;;;13.05;88.95
64023;BME280;50264;52.088;5.296;2022-08-21T05:22:53;101622.0;;;13.06;88.46
64023;BME280;50264;52.088;5.296;2022-08-21T05:24:30;101623.0;;;13.05;89.13
64023;BME280;50264;52.088;5.296;2022-08-21T05:27:43;101626.0;;;13.05;89.08
64023;BME280;50264;52.088;5.296;2022-08-21T05:29:20;101627.0;;;13.05;88.76
64023;BME280;50264;52.088;5.296;2022-08-21T05:30:57;101630.0;;;13.0;89.15
64023;BME280;50264;52.088;5.296;2022-08-21T05:34:12;101630.0;;;13.06;89.22
64023;BME280;50264;52.088;5.296;2022-08-21T05:35:49;101630.0;;;13.2;89.13
64023;BME280;50264;52.088;5.296;2022-08-21T05:37:27;101628.0;;;13.15;88.98
64023;BME280;50264;52.088;5.296;2022-08-21T05:39:03;101631.0;;;13.15;89.04
64023;BME280;50264;52.088;5.296;2022-08-21T05:42:17;101630.0;;;13.17;89.44
64023;BME280;50264;52.088;5.296;2022-08-21T05:43:53;101624.0;;;13.22;89.41
64023;BME280;50264;52.088;5.296;2022-08-21T05:45:32;101627.0;;;13.19;89.01
64023;BME280;50264;52.088;5.296;2022-08-21T05:48:46;101627.0;;;13.33;89.18
64023;BME280;50264;52.088;5.296;2022-08-21T05:50:22;101621.0;;;13.29;89.24
64023;BME280;50264;52.088;5.296;2022-08-21T05:52:00;101625.0;;;13.35;89.21
64023;BME280;50264;52.088;5.296;2022-08-21T05:53:38;101618.0;;;13.48;89.03
64023;BME280;50264;52.088;5.296;2022-08-21T05:56:51;101616.0;;;13.51;89.16
64023;BME280;50264;52.088;5.296;2022-08-21T05:58:28;101620.0;;;13.54;88.55
64023;BME280;50264;52.088;5.296;2022-08-21T06:00:04;101621.0;;;13.54;89.51
64023;BME280;50264;52.088;5.296;2022-08-21T06:03:20;101621.0;;;13.61;89.27
64023;BME280;50264;52.088;5.296;2022-08-21T06:05:00;101620.0;;;13.6;89.6
64023;BME280;50264;52.088;5.296;2022-08-21T06:06:37;101617.0;;;13.67;89.67
64023;BME280;50264;52.088;5.296;2022-08-21T06:08:13;101622.0;;;13.75;89.67
64023;BME280;50264;52.088;5.296;2022-08-21T06:11:27;101619.0;;;13.75;89.89
64023;BME280;50264;52.088;5.296;2022-08-21T06:13:04;101618.0;;;13.8;90.04
64023;BME280;50264;52.088;5.296;2022-08-21T06:14:41;101619.0;;;13.91;90.42
64023;BME280;50264;52.088;5.296;2022-08-21T06:17:54;101616.0;;;14.04;90.27
64023;BME280;50264;52.088;5.296;2022-08-21T06:19:32;101615.0;;;14.09;89.67
64023;BME280;50264;52.088;5.296;2022-08-21T06:21:09;101614.0;;;14.15;89.67
64023;BME280;50264;52.088;5.296;2022-08-21T06:24:22;101613.0;;;14.22;89.66
64023;BME280;50264;52.088;5.296;2022-08-21T06:25:59;101617.0;;;14.3;89.71
64023;BME280;50264;52.088;5.296;2022-08-21T06:27:37;101615.0;;;14.38;89.8
64023;BME280;50264;52.088;5.296;2022-08-21T06:29:17;101619.0;;;14.41;90.05
64023;BME280;50264;52.088;5.296;2022-08-21T06:32:30;101620.0;;;14.48;90.6
64023;BME280;50264;52.088;5.296;2022-08-21T06:34:08;101619.0;;;14.56;89.88
64023;BME280;50264;52.088;5.296;2022-08-21T06:35:44;101618.0;;;14.68;90.47
64023;BME280;50264;52.088;5.296;2022-08-21T06:38:58;101618.0;;;14.79;90.62
64023;BME280;50264;52.088;5.296;2022-08-21T06:40:35;101617.0;;;14.86;90.14
64023;BME280;50264;52.088;5.296;2022-08-21T06:42:13;101617.0;;;14.97;89.9
64023;BME280;50264;52.088;5.296;2022-08-21T06:43:50;101614.0;;;15.11;91.22
64023;BME280;50264;52.088;5.296;2022-08-21T06:47:04;101620.0;;;15.16;90.1
64023;BME280;50264;52.088;5.296;2022-08-21T06:48:41;101620.0;;;15.33;90.63
64023;BME280;50264;52.088;5.296;2022-08-21T06:50:17;101617.0;;;15.43;90.78
64023;BME280;50264;52.088;5.296;2022-08-21T06:53:32;101615.0;;;15.58;91.59
64023;BME280;50264;52.088;5.296;2022-08-21T06:55:10;101616.0;;;15.65;90.23
64023;BME280;50264;52.088;5.296;2022-08-21T06:56:49;101617.0;;;15.8;90.38
64023;BME280;50264;52.088;5.296;2022-08-21T06:58:26;101615.0;;;15.87;90.36
64023;BME280;50264;52.088;5.296;2022-08-21T07:01:43;101615.0;;;15.95;90.65
64023;BME280;50264;52.088;5.296;2022-08-21T07:03:23;101617.0;;;16.14;90.62
64023;BME280;50264;52.088;5.296;2022-08-21T07:05:01;101618.0;;;16.28;90.49
64023;BME280;50264;52.088;5.296;2022-08-21T07:08:15;101616.0;;;16.38;89.81
64023;BME280;50264;52.088;5.296;2022-08-21T07:09:52;101613.0;;;16.52;89.83
64023;BME280;50264;52.088;5.296;2022-08-21T07:11:28;101607.0;;;16.59;89.49
64023;BME280;50264;52.088;5.296;2022-08-21T07:13:05;101610.0;;;16.72;89.51
64023;BME280;50264;52.088;5.296;2022-08-21T07:16:19;101609.0;;;16.75;89.41
64023;BME280;50264;52.088;5.296;2022-08-21T07:17:58;101607.0;;;16.9;88.62
64023;BME280;50264;52.088;5.296;2022-08-21T07:19:34;101601.0;;;17.0;88.58
64023;BME280;50264;52.088;5.296;2022-08-21T07:22:47;101602.0;;;17.12;87.5
64023;BME280;50264;52.088;5.296;2022-08-21T07:24:23;101602.0;;;17.27;87.44
64023;BME280;50264;52.088;5.296;2022-08-21T07:26:00;101605.0;;;17.3;87.84
64023;BME280;50264;52.088;5.296;2022-08-21T07:29:13;101605.0;;;17.38;86.84
64023;BME280;50264;52.088;5.296;2022-08-21T07:30:51;101607.0;;;17.41;86.87
64023;BME280;50264;52.088;5.296;2022-08-21T07:32:29;101605.0;;;17.5;87.47
64023;BME280;50264;52.088;5.296;2022-08-21T07:34:06;101605.0;;;17.53;87.92
64023;BME280;50264;52.088;5.296;2022-08-21T07:37:21;101610.0;;;17.7;86.85
64023;BME280;50264;52.088;5.296;2022-08-21T07:38:58;101610.0;;;17.7;86.57
64023;BME280;50264;52.088;5.296;2022-08-21T07:40:35;101607.0;;;17.81;86.62
64023;BME280;50264;52.088;5.296;2022-08-21T07:43:47;101609.0;;;17.98;85.89
64023;BME280;50264;52.088;5.296;2022-08-21T07:45:25;101615.0;;;18.05;85.06
64023;BME280;50264;52.088;5.296;2022-08-21T07:47:03;101613.0;;;18.07;85.01
64023;BME280;50264;52.088;5.296;2022-08-21T07:48:40;101609.0;;;18.09;85.52
64023;BME280;50264;52.088;5.296;2022-08-21T07:51:55;101613.0;;;18.2;85.87
64023;BME280;50264;52.088;5.296;2022-08-21T07:53:31;101611.0;;;18.31;86.11
64023;BME280;50264;52.088;5.296;2022-08-21T07:55:08;101609.0;;;18.37;84.6
64023;BME280;50264;52.088;5.296;2022-08-21T07:58:23;101614.0;;;18.46;84.54
64023;BME280;50264;52.088;5.296;2022-08-21T08:00:00;101611.0;;;18.55;83.57
64023;BME280;50264;52.088;5.296;2022-08-21T08:01:36;101611.0;;;18.59;83.79
64023;BME280;50264;52.088;5.296;2022-08-21T08:04:50;101614.0;;;18.7;83.75
64023;BME280;50264;52.088;5.296;2022-08-21T08:06:27;101612.0;;;18.77;83.26
64023;BME280;50264;52.088;5.296;2022-08-21T08:08:04;101612.0;;;18.82;82.81
64023;BME280;50264;52.088;5.296;2022-08-21T08:09:41;101609.0;;;18.95;82.36
64023;BME280;50264;52.088;5.296;2022-08-21T08:12:55;101603.0;;;19.03;81.91
64023;BME280;50264;52.088;5.296;2022-08-21T08:14:32;101605.0;;;19.03;82.18
64023;BME280;50264;52.088;5.296;2022-08-21T08:16:09;101601.0;;;19.14;81.42
64023;BME280;50264;52.088;5.296;2022-08-21T08:19:24;101597.0;;;19.13;81.37
64023;BME280;50264;52.088;5.296;2022-08-21T08:21:01;101594.0;;;19.31;80.09
64023;BME280;50264;52.088;5.296;2022-08-21T08:22:39;101595.0;;;19.41;80.53
64023;BME280;50264;52.088;5.296;2022-08-21T08:24:16;101594.0;;;19.54;79.95
64023;BME280;50264;52.088;5.296;2022-08-21T08:27:30;101597.0;;;19.56;79.53
64023;BME280;50264;52.088;5.296;2022-08-21T08:29:07;101596.0;;;19.66;80.2
64023;BME280;50264;52.088;5.296;2022-08-21T08:30:45;101599.0;;;19.66;79.75
64023;BME280;50264;52.088;5.296;2022-08-21T08:33:59;101597.0;;;19.59;78.78
64023;BME280;50264;52.088;5.296;2022-08-21T08:35:36;101597.0;;;19.7;79.25
64023;BME280;50264;52.088;5.296;2022-08-21T08:37:12;101600.0;;;19.87;79.03
64023;BME280;50264;52.088;5.296;2022-08-21T08:40:31;101600.0;;;19.86;78.48
64023;BME280;50264;52.088;5.296;2022-08-21T08:42:24;101597.0;;;20.02;78.91
64023;BME280;50264;52.088;5.296;2022-08-21T08:44:06;101601.0;;;20.07;77.98
64023;BME280;50264;52.088;5.296;2022-08-21T08:45:48;101605.0;;;19.95;77.75
64023;BME280;50264;52.088;5.296;2022-08-21T08:47:27;101609.0;;;20.04;77.8
64023;BME280;50264;52.088;5.296;2022-08-21T08:50:52;101608.0;;;19.96;77.41
64023;BME280;50264;52.088;5.296;2022-08-21T08:52:35;101601.0;;;20.14;77.22
64023;BME280;50264;52.088;5.296;2022-08-21T08:54:17;101602.0;;;20.34;78.33
64023;BME280;50264;52.088;5.296;2022-08-21T08:56:00;101593.0;;;20.49;76.62
64023;BME280;50264;52.088;5.296;2022-08-21T08:59:19;101595.0;;;20.65;75.67
64023;BME280;50264;52.088;5.296;2022-08-21T09:01:09;101597.0;;;20.66;73.74
64023;BME280;50264;52.088;5.296;2022-08-21T09:02:54;101591.0;;;20.68;73.62
64023;BME280;50264;52.088;5.296;2022-08-21T09:04:31;101587.0;;;20.83;74.44
64023;BME280;50264;52.088;5.296;2022-08-21T09:06:27;101580.0;;;21.1;75.11
64023;BME280;50264;52.088;5.296;2022-08-21T09:08:27;101586.0;;;21.38;73.86
64023;BME280;50264;52.088;5.296;2022-08-21T09:11:59;101586.0;;;21.4;71.16
64023;BME280;50264;52.088;5.296;2022-08-21T09:13:47;101584.0;;;21.61;73.22
64023;BME280;50264;52.088;5.296;2022-08-21T09:15:32;101587.0;;;21.69;71.87
64023;BME280;50264;52.088;5.296;2022-08-21T09:17:30;101591.0;;;21.52;70.84
64023;BME280;50264;52.088;5.296;2022-08-21T09:19:28;101591.0;;;21.58;71.11
64023;BME280;50264;52.088;5.296;2022-08-21T09:21:19;101589.0;;;21.63;70.83
64023;BME280;50264;52.088;5.296;2022-08-21T09:23:08;101587.0;;;21.69;71.45
64023;BME280;50264;52.088;5.296;2022-08-21T09:25:03;101589.0;;;21.55;69.16
64023;BME280;50264;52.088;5.296;2022-08-21T09:28:33;101585.0;;;21.46;69.74
64023;BME280;50264;52.088;5.296;2022-08-21T09:30:12;101587.0;;;21.54;69.99
64023;BME280;50264;52.088;5.296;2022-08-21T09:31:49;101590.0;;;21.33;69.08
64023;BME280;50264;52.088;5.296;2022-08-21T09:33:26;101591.0;;;21.31;70.48
64023;BME280;50264;52.088;5.296;2022-08-21T09:36:48;101592.0;;;21.26;70.84
64023;BME280;50264;52.088;5.296;2022-08-21T09:38:30;101589.0;;;21.46;70.44
64023;BME280;50264;52.088;5.296;2022-08-21T09:40:19;101598.0;;;21.58;70.02
64023;BME280;50264;52.088;5.296;2022-08-21T09:42:09;101596.0;;;21.76;69.36
64023;BME280;50264;52.088;5.296;2022-08-21T09:43:52;101593.0;;;21.96;70.72
64023;BME280;50264;52.088;5.296;2022-08-21T09:47:09;101594.0;;;21.83;68.42
64023;BME280;50264;52.088;5.296;2022-08-21T09:48:48;101593.0;;;21.96;69.49
64023;BME280;50264;52.088;5.296;2022-08-21T09:50:27;101592.0;;;22.25;69.77
64023;BME280;50264;52.088;5.296;2022-08-21T09:52:16;101590.0;;;22.38;66.88
64023;BME280;50264;52.088;5.296;2022-08-21T09:58:46;101585.0;;;22.79;64.36
64023;BME280;50264;52.088;5.296;2022-08-21T10:00:27;101590.0;;;23.02;65.52
64023;BME280;50264;52.088;5.296;2022-08-21T10:04:03;101595.0;;;23.16;64.25
64023;BME280;50264;52.088;5.296;2022-08-21T10:05:53;101582.0;;;22.91;62.2
64023;BME280;50264;52.088;5.296;2022-08-21T10:07:31;101573.0;;;23.03;64.67
64023;BME280;50264;52.088;5.296;2022-08-21T10:09:14;101572.0;;;23.33;66.17
64023;BME280;50264;52.088;5.296;2022-08-21T10:10:56;101571.0;;;23.3;63.18
64023;BME280;50264;52.088;5.296;2022-08-21T10:14:42;101581.0;;;23.48;62.71
64023;BME280;50264;52.088;5.296;2022-08-21T10:16:40;101574.0;;;23.59;62.2
64023;BME280;50264;52.088;5.296;2022-08-21T10:18:34;101573.0;;;23.67;61.35
64023;BME280;50264;52.088;5.296;2022-08-21T10:20:20;101567.0;;;23.77;60.36
64023;BME280;50264;52.088;5.296;2022-08-21T10:22:05;101572.0;;;23.82;60.16
64023;BME280;50264;52.088;5.296;2022-08-21T10:23:54;101577.0;;;24.03;60.93
64023;BME280;50264;52.088;5.296;2022-08-21T10:25:44;101572.0;;;24.13;60.87
64023;BME280;50264;52.088;5.296;2022-08-21T10:29:20;101570.0;;;24.41;60.47
64023;BME280;50264;52.088;5.296;2022-08-21T10:31:21;101570.0;;;24.37;59.4
64023;BME280;50264;52.088;5.296;2022-08-21T10:33:14;101571.0;;;24.61;60.4
64023;BME280;50264;52.088;5.296;2022-08-21T10:35:05;101572.0;;;24.58;55.87
64023;BME280;50264;52.088;5.296;2022-08-21T10:37:05;101570.0;;;24.37;55.09
64023;BME280;50264;52.088;5.296;2022-08-21T10:38:55;101564.0;;;24.27;56.71
64023;BME280;50264;52.088;5.296;2022-08-21T10:40:37;101563.0;;;24.37;57.13
64023;BME280;50264;52.088;5.296;2022-08-21T10:42:26;101560.0;;;24.45;56.69
64023;BME280;50264;52.088;5.296;2022-08-21T10:46:05;101557.0;;;24.35;58.04
64023;BME280;50264;52.088;5.296;2022-08-21T10:47:55;101555.0;;;24.39;57.89
64023;BME280;50264;52.088;5.296;2022-08-21T10:49:40;101557.0;;;24.38;58.48
64023;BME280;50264;52.088;5.296;2022-08-21T10:51:30;101560.0;;;24.28;57.08
64023;BME280;50264;52.088;5.296;2022-08-21T10:53:19;101561.0;;;24.35;56.37
64023;BME280;50264;52.088;5.296;2022-08-21T10:55:10;101558.0;;;24.29;57.73
64023;BME280;50264;52.088;5.296;2022-08-21T10:58:37;101557.0;;;24.14;56.55
64023;BME280;50264;52.088;5.296;2022-08-21T11:00:19;101553.0;;;24.3;56.67
64023;BME280;50264;52.088;5.296;2022-08-21T11:02:00;101550.0;;;24.47;56.26
64023;BME280;50264;52.088;5.296;2022-08-21T11:03:46;101547.0;;;24.54;54.4
64023;BME280;50264;52.088;5.296;2022-08-21T11:05:30;101544.0;;;24.82;56.59
64023;BME280;50264;52.088;5.296;2022-08-21T11:08:58;101545.0;;;24.91;55.01
64023;BME280;50264;52.088;5.296;2022-08-21T11:10:49;101539.0;;;25.03;53.89